Airfield :
LOGIN :

Register | Disclaimer

   EN    FR    IT 

 










Legend :    VFR   Marginal VFR   IFR   Intensive IFR   Very Intensive IFR
Visi :
Ceiling :
>= 8 km
>= 3000ft
5 to 8 km
1000 to 3000 ft
1500m to 5 km
500 to 1000 ft
800 to 1500m
200 to 500 ft
< 800m
< 200 ft
Symbols :   Thunderstorms  Fog  Heavy snow  Heavy precipitations  Wind > 20 kt
SIGMETs :     Misc.  Thunderstorms  Icing  Turbulence  Mountain Waves  Volcanic Ashes






- Airport Elevation : 124 ft
- IATA code : RNS


LFRN - Rennes

CURRENT METAR :
  • 180600Z AUTO VRB02KT CAVOK M00/M01 Q1025 TEMPO 3000 BR

EXPIRED METARs :
  • 180530Z AUTO 30003KT 5000 R10/0900U BR NSC 00/M00 Q1025 NOSIG
  • 180500Z AUTO 29003KT 9999 2300 NSC M00/M01 Q1025 TEMPO 4000 BR
  • 180430Z AUTO 26003KT CAVOK M01/M02 Q1024 TEMPO 4000 BR
  • 180400Z AUTO 28001KT CAVOK 00/M01 Q1025 TEMPO 4000 BR
  • 180330Z AUTO VRB03KT CAVOK 01/M00 Q1025 TEMPO 4000 BR

TAF TAF LFRN
Valid from the 18 at 06:00 until the 19 at 06:00 UTC


180500Z 1806/1906 VRB03KT CAVOK
BECMG 1806/1809 03006KT
PROB40
TEMPO 1806/1807 3000 BR
BECMG 1816/1818 36010KT
BECMG 1821/1824 VRB05KT
PROB30
TEMPO 1900/1906 4000 BR
ATIS : +33 2 99 67 72 50



MET'MAP, your aeronautical weather chart ! - Copyright ORBIFLY December 2007 - Disclaimer

ORBIFLY MET'MAP TEAM :

Programming & Development : Alexandra Zaïnal
Concept & original design : Baudouin d'Aumeries
Assistance for programming : Marc-Olivier Méhu
Technical & hardware support : Manuel Goepfert

Contact : metmap@orbifly.com




SOURCES & CREDITS :

   NOAA